createdAt,value
2019-02-24T00:02:02.755Z,2.60
2019-02-24T00:04:31.287Z,2.60
2019-02-24T00:06:59.799Z,2.70
2019-02-24T00:09:28.352Z,2.80
2019-02-24T00:11:57.097Z,2.90
2019-02-24T00:14:25.711Z,2.90
2019-02-24T00:16:54.395Z,2.80
2019-02-24T00:19:23.048Z,2.70
2019-02-24T00:21:51.622Z,2.70
2019-02-24T00:24:20.390Z,2.70
2019-02-24T00:26:49.061Z,2.70
2019-02-24T00:29:17.782Z,2.80
2019-02-24T00:31:46.576Z,2.80
2019-02-24T00:34:15.178Z,2.80
2019-02-24T00:36:44.000Z,2.60
2019-02-24T00:39:12.723Z,2.50
2019-02-24T00:41:41.344Z,2.60
2019-02-24T00:44:09.835Z,2.60
2019-02-24T00:46:38.377Z,2.70
2019-02-24T00:49:06.952Z,2.80
2019-02-24T00:51:35.707Z,2.70
2019-02-24T00:54:04.282Z,2.70
2019-02-24T00:56:32.856Z,2.60
2019-02-24T00:59:01.455Z,2.60
2019-02-24T01:01:30.000Z,2.60
2019-02-24T01:03:58.570Z,2.70
2019-02-24T01:06:27.212Z,2.70
2019-02-24T01:08:55.694Z,2.70
2019-02-24T01:11:24.307Z,2.70
2019-02-24T01:13:54.003Z,2.70
2019-02-24T01:16:22.879Z,2.50
2019-02-24T01:18:51.410Z,2.30
2019-02-24T01:21:19.958Z,2.30
2019-02-24T01:23:48.516Z,2.30
2019-02-24T01:26:17.008Z,2.30
2019-02-24T01:28:45.544Z,2.30
2019-02-24T01:31:14.104Z,2.20
2019-02-24T01:33:42.622Z,2.30
2019-02-24T01:36:11.151Z,2.20
2019-02-24T01:38:39.664Z,2.20
2019-02-24T01:41:08.130Z,2.20
2019-02-24T01:43:36.695Z,2.10
2019-02-24T01:46:05.171Z,2.20
2019-02-24T01:48:33.659Z,1.90
2019-02-24T01:51:02.145Z,1.80
2019-02-24T01:53:30.608Z,1.80
2019-02-24T01:55:59.254Z,1.70
2019-02-24T01:58:34.994Z,1.70
2019-02-24T02:00:58.516Z,1.70
2019-02-24T02:03:27.051Z,1.80
2019-02-24T02:05:55.603Z,1.90
2019-02-24T02:08:24.142Z,1.90
2019-02-24T02:10:52.794Z,1.90
2019-02-24T02:13:21.359Z,2.10
2019-02-24T02:15:50.003Z,2.20
2019-02-24T02:18:18.571Z,2.30
2019-02-24T02:20:47.087Z,2.30
2019-02-24T02:23:16.157Z,2.10
2019-02-24T02:25:45.081Z,1.90
2019-02-24T02:28:13.775Z,1.80
2019-02-24T02:30:42.377Z,1.90
2019-02-24T02:33:10.962Z,1.90
2019-02-24T02:35:39.662Z,1.90
2019-02-24T02:38:08.296Z,1.70
2019-02-24T02:40:36.941Z,1.60
2019-02-24T02:43:05.508Z,1.50
2019-02-24T02:45:34.213Z,1.40
2019-02-24T02:48:02.746Z,1.40
2019-02-24T02:50:31.323Z,1.30
2019-02-24T02:52:59.870Z,1.30
2019-02-24T02:55:28.534Z,1.20
2019-02-24T02:57:57.191Z,1.20
2019-02-24T03:00:30.731Z,1.30
2019-02-24T03:02:59.264Z,1.30
2019-02-24T03:05:27.836Z,1.40
2019-02-24T03:07:57.940Z,1.30
2019-02-24T03:10:26.401Z,1.20
2019-02-24T03:12:54.893Z,1.10
2019-02-24T03:15:23.364Z,1.30
2019-02-24T03:17:51.934Z,1.30
2019-02-24T03:20:20.474Z,0.90
2019-02-24T03:22:49.046Z,0.70
2019-02-24T03:25:17.838Z,0.60
2019-02-24T03:27:46.385Z,0.70
2019-02-24T03:30:15.033Z,0.80
2019-02-24T03:32:43.603Z,0.80
2019-02-24T03:35:12.167Z,0.70
2019-02-24T03:37:40.663Z,0.60
2019-02-24T03:40:09.273Z,0.70
2019-02-24T03:42:37.878Z,0.80
2019-02-24T03:45:08.988Z,0.80
2019-02-24T03:47:37.489Z,0.90
2019-02-24T03:50:08.137Z,1.00
2019-02-24T03:52:36.854Z,1.00
2019-02-24T03:55:05.858Z,0.90
2019-02-24T03:57:34.665Z,1.00
2019-02-24T04:00:03.693Z,1.10
2019-02-24T04:02:32.229Z,1.20
2019-02-24T04:05:00.870Z,1.10
2019-02-24T04:07:29.508Z,1.10
2019-02-24T04:09:58.003Z,1.10
2019-02-24T04:12:26.491Z,1.00
2019-02-24T04:14:54.956Z,0.90
2019-02-24T04:17:23.455Z,0.90
2019-02-24T04:19:51.916Z,0.90
2019-02-24T04:22:20.479Z,0.60
2019-02-24T04:24:48.949Z,0.50
2019-02-24T04:27:17.447Z,0.40
2019-02-24T04:29:45.923Z,0.60
2019-02-24T04:32:14.461Z,0.60
2019-02-24T04:34:43.036Z,0.40
2019-02-24T04:37:11.499Z,0.40
2019-02-24T04:39:39.997Z,0.40
2019-02-24T04:42:08.452Z,0.40
2019-02-24T04:44:36.953Z,0.50
2019-02-24T04:47:05.507Z,0.70
2019-02-24T04:49:34.004Z,0.80
2019-02-24T04:52:02.472Z,0.90
2019-02-24T04:54:31.004Z,0.80
2019-02-24T04:56:59.471Z,0.90
2019-02-24T04:59:34.779Z,1.00
2019-02-24T05:01:58.236Z,0.90
2019-02-24T05:04:26.702Z,0.80
2019-02-24T05:06:55.216Z,0.80
2019-02-24T05:09:23.751Z,0.70
2019-02-24T05:11:52.213Z,0.40
2019-02-24T05:14:20.988Z,0.20
2019-02-24T05:16:49.561Z,0.00
2019-02-24T05:19:18.132Z,0.10
2019-02-24T05:21:46.699Z,0.30
2019-02-24T05:24:15.200Z,0.30
2019-02-24T05:26:43.745Z,0.30
2019-02-24T05:29:12.283Z,0.20
2019-02-24T05:31:40.768Z,0.10
2019-02-24T05:34:09.241Z,0.00
2019-02-24T05:36:37.799Z,0.00
2019-02-24T05:39:06.372Z,0.10
2019-02-24T05:41:34.957Z,0.30
2019-02-24T05:44:03.496Z,0.30
2019-02-24T05:46:32.065Z,0.30
2019-02-24T05:49:00.605Z,0.10
2019-02-24T05:51:29.176Z,-0.10
2019-02-24T05:53:57.715Z,-0.10
2019-02-24T05:56:26.244Z,0.00
2019-02-24T05:58:54.759Z,0.10
2019-02-24T06:01:23.274Z,0.10
2019-02-24T06:03:51.741Z,0.10
2019-02-24T06:06:20.201Z,0.10
2019-02-24T06:08:48.777Z,0.10
2019-02-24T06:11:17.240Z,-0.10
2019-02-24T06:13:45.743Z,-0.20
2019-02-24T06:16:14.291Z,-0.30
2019-02-24T06:18:42.880Z,-0.30
2019-02-24T06:21:11.417Z,-0.40
2019-02-24T06:23:39.996Z,-0.30
2019-02-24T06:26:08.496Z,-0.20
2019-02-24T06:28:37.043Z,-0.20
2019-02-24T06:31:05.691Z,-0.10
2019-02-24T06:33:34.230Z,0.10
2019-02-24T06:36:02.793Z,0.20
2019-02-24T06:38:31.296Z,0.20
2019-02-24T06:40:59.988Z,0.20
2019-02-24T06:43:28.628Z,0.20
2019-02-24T06:45:57.120Z,0.20
2019-02-24T06:48:25.701Z,0.20
2019-02-24T06:50:55.881Z,0.10
2019-02-24T06:53:24.386Z,0.00
2019-02-24T06:55:52.946Z,0.10
2019-02-24T06:58:21.548Z,0.40
2019-02-24T07:00:50.005Z,0.60
2019-02-24T07:03:18.493Z,0.70
2019-02-24T07:05:46.955Z,0.60
2019-02-24T07:08:15.450Z,0.40
2019-02-24T07:10:43.918Z,0.50
2019-02-24T07:13:12.489Z,0.90
2019-02-24T07:15:40.952Z,1.40
2019-02-24T07:18:09.454Z,1.70
2019-02-24T07:20:37.947Z,2.50
2019-02-24T07:23:06.407Z,2.80
2019-02-24T07:25:34.972Z,3.10
2019-02-24T07:28:03.536Z,3.30
2019-02-24T07:30:32.089Z,3.50
2019-02-24T07:33:00.602Z,3.50
2019-02-24T07:35:29.123Z,3.50
2019-02-24T07:37:57.625Z,3.40
2019-02-24T07:40:26.148Z,3.50
2019-02-24T07:42:54.627Z,3.50
2019-02-24T07:45:23.215Z,3.70
2019-02-24T07:47:52.646Z,3.70
2019-02-24T07:50:21.211Z,3.70
2019-02-24T07:52:49.676Z,4.00
2019-02-24T07:55:18.179Z,4.30
2019-02-24T07:57:46.640Z,4.70
2019-02-24T08:00:15.271Z,5.10
2019-02-24T08:02:43.748Z,5.20
2019-02-24T08:05:12.316Z,4.30
2019-02-24T08:07:40.813Z,5.00
2019-02-24T08:10:09.380Z,5.50
2019-02-24T08:12:37.840Z,5.90
2019-02-24T08:15:08.277Z,6.10
2019-02-24T08:17:36.775Z,6.40
2019-02-24T08:20:08.242Z,6.80
2019-02-24T08:22:36.743Z,6.70
2019-02-24T08:25:06.847Z,6.60
2019-02-24T08:27:35.456Z,6.90
2019-02-24T08:30:06.066Z,7.30
2019-02-24T08:32:34.627Z,7.20
2019-02-24T08:35:03.121Z,7.40
2019-02-24T08:37:31.684Z,7.40
2019-02-24T08:40:00.298Z,7.50
2019-02-24T08:42:28.792Z,7.50
2019-02-24T08:44:57.288Z,7.90
2019-02-24T08:47:25.759Z,8.20
2019-02-24T08:49:54.268Z,7.90
2019-02-24T08:52:22.733Z,7.90
2019-02-24T08:54:51.367Z,8.00
2019-02-24T08:57:19.859Z,7.80
2019-02-24T08:59:48.322Z,7.30
2019-02-24T09:02:16.774Z,7.00
2019-02-24T09:04:45.271Z,6.60
2019-02-24T09:07:13.927Z,6.40
2019-02-24T09:09:42.392Z,6.80
2019-02-24T09:12:10.899Z,7.00
2019-02-24T09:14:39.369Z,7.00
2019-02-24T09:17:07.936Z,7.10
2019-02-24T09:19:36.794Z,7.20
2019-02-24T09:22:05.509Z,7.20
2019-02-24T09:24:34.000Z,7.40
2019-02-24T09:27:02.463Z,7.50
2019-02-24T09:29:31.039Z,6.80
2019-02-24T09:31:59.576Z,7.30
2019-02-24T09:34:28.086Z,7.90
2019-02-24T09:36:56.556Z,8.20
2019-02-24T09:39:25.099Z,9.20
2019-02-24T09:41:53.655Z,8.90
2019-02-24T09:44:22.119Z,9.20
2019-02-24T09:46:50.680Z,9.70
2019-02-24T09:49:19.141Z,9.60
2019-02-24T09:51:47.644Z,10.50
2019-02-24T09:54:16.151Z,9.70
2019-02-24T09:56:44.720Z,9.80
2019-02-24T09:59:13.200Z,10.60
2019-02-24T10:01:41.775Z,10.90
2019-02-24T10:04:10.312Z,10.30
2019-02-24T10:06:38.891Z,9.70
2019-02-24T10:09:07.403Z,9.60
2019-02-24T10:11:36.004Z,9.40
2019-02-24T10:14:04.538Z,10.40
2019-02-24T10:16:33.205Z,11.20
2019-02-24T10:19:01.744Z,11.70
2019-02-24T10:21:30.207Z,11.90
2019-02-24T10:23:58.775Z,12.40
2019-02-24T10:26:27.250Z,12.40
2019-02-24T10:28:55.744Z,12.50
2019-02-24T10:31:24.222Z,12.30
2019-02-24T10:33:52.790Z,12.80
2019-02-24T10:36:21.696Z,12.20
2019-02-24T10:38:50.251Z,10.70
2019-02-24T10:41:18.783Z,11.00
2019-02-24T10:43:47.288Z,10.20
2019-02-24T10:46:15.765Z,10.50
2019-02-24T10:48:44.337Z,11.10
2019-02-24T10:51:12.804Z,11.90
2019-02-24T10:53:41.377Z,12.40
2019-02-24T10:56:09.909Z,12.40
2019-02-24T10:58:38.407Z,12.40
2019-02-24T11:01:07.000Z,12.60
2019-02-24T11:03:35.490Z,12.70
2019-02-24T11:06:03.961Z,12.90
2019-02-24T11:08:32.593Z,12.80
2019-02-24T11:11:01.052Z,13.20
2019-02-24T11:13:29.612Z,13.40
2019-02-24T11:15:58.105Z,13.10
2019-02-24T11:18:26.568Z,13.40
2019-02-24T11:20:55.075Z,13.20
2019-02-24T11:23:23.664Z,13.50
2019-02-24T11:25:52.359Z,13.80
2019-02-24T11:28:20.866Z,13.60
2019-02-24T11:30:49.506Z,12.80
2019-02-24T11:33:17.976Z,12.60
2019-02-24T11:35:46.635Z,12.50
2019-02-24T11:38:15.099Z,12.80
2019-02-24T11:40:43.705Z,13.10
2019-02-24T11:43:12.288Z,12.70
2019-02-24T11:45:40.827Z,13.00
2019-02-24T11:48:09.331Z,13.20
2019-02-24T11:50:37.881Z,13.40
2019-02-24T11:53:06.445Z,13.60
2019-02-24T11:55:34.921Z,13.50
2019-02-24T11:58:03.482Z,13.20
2019-02-24T12:00:32.112Z,13.80
2019-02-24T12:03:00.994Z,13.70
2019-02-24T12:05:29.727Z,14.30
2019-02-24T12:07:58.185Z,14.90
2019-02-24T12:10:26.776Z,15.40
2019-02-24T12:12:55.332Z,15.20
2019-02-24T12:15:23.862Z,14.40
2019-02-24T12:17:52.364Z,14.00
2019-02-24T12:20:20.931Z,14.40
2019-02-24T12:22:49.402Z,14.80
2019-02-24T12:25:18.145Z,15.00
2019-02-24T12:27:46.691Z,15.00
2019-02-24T12:30:16.629Z,15.60
2019-02-24T12:32:45.274Z,14.90
2019-02-24T12:35:13.899Z,14.90
2019-02-24T12:37:42.980Z,14.40
2019-02-24T12:40:15.816Z,14.40
2019-02-24T12:42:44.389Z,14.60
2019-02-24T12:45:12.920Z,14.60
2019-02-24T12:47:43.427Z,14.50
2019-02-24T12:50:14.760Z,15.00
2019-02-24T12:52:43.371Z,15.60
2019-02-24T12:55:12.271Z,15.20
2019-02-24T12:57:41.519Z,15.50
2019-02-24T13:00:14.804Z,15.90
2019-02-24T13:02:43.420Z,15.70
2019-02-24T13:05:12.060Z,15.40
2019-02-24T13:07:40.531Z,15.00
2019-02-24T13:10:12.141Z,15.40
2019-02-24T13:12:40.781Z,15.90
2019-02-24T13:15:09.791Z,15.90
2019-02-24T13:17:38.364Z,15.40
2019-02-24T13:20:10.111Z,15.00
2019-02-24T13:22:39.257Z,14.90
2019-02-24T13:25:10.445Z,13.90
2019-02-24T13:27:39.089Z,14.00
2019-02-24T13:30:12.976Z,13.80
2019-02-24T13:32:41.508Z,14.10
2019-02-24T13:35:10.223Z,14.40
2019-02-24T13:37:38.799Z,14.40
2019-02-24T13:40:12.815Z,14.90
2019-02-24T13:42:41.286Z,15.10
2019-02-24T13:45:15.744Z,14.70
2019-02-24T13:47:44.290Z,14.60
2019-02-24T13:50:13.866Z,14.60
2019-02-24T13:52:42.447Z,14.40
2019-02-24T13:55:12.738Z,14.20
2019-02-24T13:57:41.344Z,14.50
2019-02-24T14:00:16.000Z,14.60
2019-02-24T14:02:44.636Z,14.80
2019-02-24T14:05:14.037Z,14.80
2019-02-24T14:07:42.602Z,14.90
2019-02-24T14:10:13.002Z,15.10
2019-02-24T14:12:42.069Z,14.70
2019-02-24T14:15:13.072Z,14.60
2019-02-24T14:17:41.704Z,14.70
2019-02-24T14:20:12.508Z,14.80
2019-02-24T14:22:41.131Z,14.70
2019-02-24T14:25:11.272Z,14.70
2019-02-24T14:27:39.749Z,14.60
2019-02-24T14:30:16.995Z,14.70
2019-02-24T14:32:45.702Z,14.40
2019-02-24T14:35:19.803Z,14.40
2019-02-24T14:37:48.353Z,14.40
2019-02-24T14:40:17.073Z,14.60
2019-02-24T14:42:45.614Z,14.90
2019-02-24T14:45:17.187Z,15.10
2019-02-24T14:47:45.720Z,15.00
2019-02-24T14:50:14.454Z,14.90
2019-02-24T14:52:43.132Z,14.80
2019-02-24T14:55:13.358Z,14.80
2019-02-24T14:57:41.973Z,14.40
2019-02-24T15:00:19.466Z,14.40
2019-02-24T15:02:48.078Z,14.40
2019-02-24T15:05:16.992Z,14.40
2019-02-24T15:07:45.788Z,14.10
2019-02-24T15:10:19.604Z,14.20
2019-02-24T15:12:48.067Z,14.60
2019-02-24T15:15:19.846Z,14.70
2019-02-24T15:17:48.786Z,14.70
2019-02-24T15:20:19.184Z,14.80
2019-02-24T15:22:47.830Z,14.90
2019-02-24T15:25:17.699Z,15.30
2019-02-24T15:27:46.336Z,15.50
2019-02-24T15:30:26.494Z,15.60
2019-02-24T15:32:55.076Z,15.70
2019-02-24T15:35:23.629Z,15.80
2019-02-24T15:37:52.116Z,16.10
2019-02-24T15:40:20.683Z,16.30
2019-02-24T15:42:49.155Z,16.20
2019-02-24T15:45:17.797Z,15.90
2019-02-24T15:47:46.458Z,15.90
2019-02-24T15:50:15.172Z,15.80
2019-02-24T15:52:43.772Z,15.70
2019-02-24T15:55:17.091Z,15.60
2019-02-24T15:57:45.600Z,15.40
2019-02-24T16:00:19.140Z,15.40
2019-02-24T16:02:47.616Z,15.30
2019-02-24T16:05:16.199Z,15.30
2019-02-24T16:07:44.770Z,15.20
2019-02-24T16:10:18.661Z,15.30
2019-02-24T16:12:47.175Z,15.40
2019-02-24T16:15:17.448Z,15.40
2019-02-24T16:17:45.904Z,15.50
2019-02-24T16:20:22.883Z,15.30
2019-02-24T16:22:51.344Z,15.40
2019-02-24T16:25:19.867Z,15.40
2019-02-24T16:27:48.399Z,15.50
2019-02-24T16:30:17.120Z,15.60
2019-02-24T16:32:45.836Z,15.20
2019-02-24T16:35:15.872Z,14.70
2019-02-24T16:37:44.332Z,14.50
2019-02-24T16:40:21.016Z,14.10
2019-02-24T16:42:49.574Z,13.50
2019-02-24T16:45:18.208Z,13.10
2019-02-24T16:47:46.740Z,12.90
2019-02-24T16:50:23.784Z,12.80
2019-02-24T16:52:52.322Z,12.50
2019-02-24T16:55:20.964Z,12.20
2019-02-24T16:57:49.519Z,12.00
2019-02-24T17:00:25.364Z,11.80
2019-02-24T17:02:53.947Z,11.70
2019-02-24T17:05:22.923Z,11.60
2019-02-24T17:07:51.491Z,11.50
2019-02-24T17:10:27.373Z,11.60
2019-02-24T17:12:56.500Z,11.70
2019-02-24T17:15:24.961Z,11.70
2019-02-24T17:17:53.533Z,11.60
2019-02-24T17:20:29.954Z,11.70
2019-02-24T17:22:58.491Z,11.60
2019-02-24T17:25:26.983Z,11.60
2019-02-24T17:27:55.484Z,11.50
2019-02-24T17:30:24.188Z,11.50
2019-02-24T17:32:52.738Z,11.30
2019-02-24T17:35:21.501Z,11.30
2019-02-24T17:37:50.034Z,11.20
2019-02-24T17:40:20.182Z,11.10
2019-02-24T17:42:48.820Z,11.00
2019-02-24T17:45:18.387Z,10.60
2019-02-24T17:47:46.974Z,10.40
2019-02-24T17:50:16.791Z,9.70
2019-02-24T17:52:45.249Z,9.20
2019-02-24T17:55:14.757Z,9.00
2019-02-24T17:57:43.325Z,9.10
2019-02-24T18:00:32.551Z,9.10
2019-02-24T18:03:01.010Z,9.00
2019-02-24T18:05:29.517Z,8.90
2019-02-24T18:07:58.093Z,8.90
2019-02-24T18:10:26.626Z,8.90
2019-02-24T18:12:55.083Z,8.80
2019-02-24T18:15:23.666Z,8.70
2019-02-24T18:17:52.205Z,8.40
2019-02-24T18:20:22.200Z,8.10
2019-02-24T18:22:50.839Z,7.90
2019-02-24T18:25:19.441Z,7.90
2019-02-24T18:27:47.928Z,7.90
2019-02-24T18:30:22.410Z,7.90
2019-02-24T18:32:50.941Z,8.10
2019-02-24T18:35:19.498Z,8.20
2019-02-24T18:37:47.964Z,8.10
2019-02-24T18:40:16.992Z,7.70
2019-02-24T18:42:45.527Z,7.60
2019-02-24T18:45:14.763Z,7.70
2019-02-24T18:47:43.335Z,7.90
2019-02-24T18:50:14.873Z,7.90
2019-02-24T18:52:43.488Z,8.00
2019-02-24T18:55:12.688Z,8.10
2019-02-24T18:57:41.299Z,8.10
2019-02-24T19:00:20.256Z,8.00
2019-02-24T19:02:48.788Z,8.00
2019-02-24T19:05:17.414Z,8.10
2019-02-24T19:07:46.399Z,8.20
2019-02-24T19:10:21.324Z,8.10
2019-02-24T19:12:50.306Z,7.80
2019-02-24T19:15:22.970Z,7.70
2019-02-24T19:17:51.592Z,7.60
2019-02-24T19:20:21.500Z,7.50
2019-02-24T19:22:50.083Z,7.30
2019-02-24T19:25:18.701Z,7.20
2019-02-24T19:27:47.484Z,7.10
2019-02-24T19:30:19.903Z,6.90
2019-02-24T19:32:48.543Z,6.80
2019-02-24T19:35:18.468Z,6.80
2019-02-24T19:37:47.055Z,6.80
2019-02-24T19:40:17.745Z,6.70
2019-02-24T19:42:46.443Z,6.60
2019-02-24T19:45:25.369Z,6.60
2019-02-24T19:47:54.077Z,6.70
2019-02-24T19:50:22.694Z,6.70
2019-02-24T19:52:51.490Z,6.90
2019-02-24T19:55:20.059Z,7.00
2019-02-24T19:57:48.831Z,7.10
2019-02-24T20:00:20.453Z,7.10
2019-02-24T20:02:49.072Z,7.10
2019-02-24T20:05:18.073Z,7.10
2019-02-24T20:07:46.993Z,7.20
2019-02-24T20:10:20.550Z,7.20
2019-02-24T20:12:49.197Z,7.10
2019-02-24T20:15:17.904Z,7.00
2019-02-24T20:17:46.531Z,6.90
2019-02-24T20:20:16.855Z,6.80
2019-02-24T20:22:45.452Z,6.80
2019-02-24T20:25:18.842Z,6.90
2019-02-24T20:27:47.353Z,6.70
2019-02-24T20:30:18.791Z,6.80
2019-02-24T20:32:47.326Z,6.70
2019-02-24T20:35:15.820Z,6.40
2019-02-24T20:37:44.276Z,6.30
2019-02-24T20:40:13.044Z,6.30
2019-02-24T20:42:41.583Z,6.40
2019-02-24T20:45:15.945Z,6.50
2019-02-24T20:47:44.577Z,6.50
2019-02-24T20:50:15.592Z,6.50
2019-02-24T20:52:44.166Z,6.40
2019-02-24T20:55:12.985Z,6.40
2019-02-24T20:57:41.444Z,6.60
2019-02-24T21:00:19.221Z,6.60
2019-02-24T21:02:47.680Z,6.50
2019-02-24T21:05:16.685Z,6.40
2019-02-24T21:07:45.307Z,6.40
2019-02-24T21:10:13.948Z,5.90
2019-02-24T21:12:42.418Z,5.90
2019-02-24T21:15:13.668Z,6.00
2019-02-24T21:17:43.671Z,6.20
2019-02-24T21:20:31.917Z,6.10
2019-02-24T21:23:00.415Z,6.00
2019-02-24T21:25:29.031Z,5.90
2019-02-24T21:27:57.672Z,5.70
2019-02-24T21:30:27.081Z,5.30
2019-02-24T21:32:55.661Z,5.10
2019-02-24T21:35:24.202Z,5.00
2019-02-24T21:37:52.768Z,5.00
2019-02-24T21:40:23.425Z,5.20
2019-02-24T21:42:51.600Z,5.40
2019-02-24T21:45:22.781Z,5.30
2019-02-24T21:47:52.041Z,5.30
2019-02-24T21:50:20.727Z,5.40
2019-02-24T21:52:49.260Z,5.30
2019-02-24T21:55:18.035Z,5.30
2019-02-24T21:57:46.696Z,5.20
2019-02-24T22:00:20.152Z,5.30
2019-02-24T22:02:48.722Z,5.40
2019-02-24T22:05:17.359Z,5.60
2019-02-24T22:07:45.824Z,5.60
2019-02-24T22:10:15.633Z,5.60
2019-02-24T22:12:44.212Z,5.50
2019-02-24T22:15:15.788Z,5.40
2019-02-24T22:17:44.336Z,5.30
2019-02-24T22:20:14.889Z,5.30
2019-02-24T22:22:43.791Z,5.30
2019-02-24T22:25:14.497Z,5.20
2019-02-24T22:27:43.137Z,5.00
2019-02-24T22:30:14.508Z,4.70
2019-02-24T22:32:42.996Z,4.60
2019-02-24T22:35:11.625Z,4.40
2019-02-24T22:37:40.230Z,4.30
2019-02-24T22:40:16.412Z,4.50
2019-02-24T22:42:45.026Z,4.60
2019-02-24T22:45:22.440Z,4.60
2019-02-24T22:47:50.985Z,4.40
2019-02-24T22:50:19.638Z,4.50
2019-02-24T22:52:48.420Z,4.60
2019-02-24T22:55:17.958Z,4.70
2019-02-24T22:57:46.552Z,4.70
2019-02-24T23:00:34.700Z,4.80
2019-02-24T23:03:03.733Z,4.90
2019-02-24T23:05:32.261Z,4.90
2019-02-24T23:08:00.798Z,4.70
2019-02-24T23:10:29.362Z,4.70
2019-02-24T23:12:57.820Z,4.40
2019-02-24T23:15:26.303Z,4.30
2019-02-24T23:17:54.844Z,4.10
2019-02-24T23:20:23.334Z,4.20
2019-02-24T23:22:51.872Z,4.40
2019-02-24T23:25:20.355Z,4.20
2019-02-24T23:27:48.951Z,3.80
2019-02-24T23:30:17.524Z,3.80
2019-02-24T23:32:46.011Z,3.90
2019-02-24T23:35:14.576Z,3.80
2019-02-24T23:37:43.040Z,3.60
2019-02-24T23:40:11.635Z,3.70
2019-02-24T23:42:40.135Z,3.80
2019-02-24T23:45:11.006Z,3.80
2019-02-24T23:47:39.854Z,3.70
2019-02-24T23:50:11.031Z,3.60
2019-02-24T23:52:39.534Z,3.50
2019-02-24T23:55:09.512Z,3.30
2019-02-24T23:57:38.087Z,3.40
